Flight Track Log - Related Links

Times and Time Zones

All times are in EDT time to prevent confusion due to time zone crossing. See the CHB6210 flight status page for this flight to view local times or setup timezone preferences in your user account.

Time Position Orientation Groundspeed Altitude Reporting Facility
EDT Latitude Longitude Course Direction KTS MPH feet Rate Location/Type
Wed 11:29:00 PM 34.4404 113.1947 262° West  Level Estimated
Wed 11:30:00 PM 34.4269 113.0871 261° West  Level Estimated
Wed 11:31:00 PM 34.4133 112.9796 261° West  Level Estimated
Wed 11:32:00 PM 34.3995 112.8720 261° West  Level Estimated
Wed 11:33:00 PM 34.3857 112.7646 261° West  Level Estimated
Wed 11:34:00 PM 34.3718 112.6571 261° West  Level Estimated
Wed 11:35:00 PM 34.3578 112.5497 261° West  Level Estimated
Wed 11:36:00 PM 34.3437 112.4423 261° West  Level Estimated
Wed 11:37:00 PM 34.3295 112.3350 261° West  Level Estimated
Wed 11:38:00 PM 34.3152 112.2277 261° West  Level Estimated
Wed 11:39:00 PM 34.3008 112.1205 261° West  Level Estimated
Wed 11:40:00 PM 34.2864 112.0132 261° West  Level Estimated
Wed 11:41:00 PM 34.2718 111.9061 261° West  Level Estimated
Wed 11:42:00 PM 34.2571 111.7989 261° West  Level Estimated
Wed 11:43:00 PM 34.2424 111.6918 261° West  Level Estimated
Wed 11:44:00 PM 34.2275 111.5847 261° West  Level Estimated
Wed 11:45:00 PM 34.2126 111.4777 260° West  Level Estimated
Wed 11:46:00 PM 34.1976 111.3707 260° West  Level Estimated
Wed 11:47:00 PM 34.1824 111.2637 260° West  Level Estimated
Wed 11:48:00 PM 34.1672 111.1568 260° West  Level Estimated
Wed 11:49:00 PM 34.1519 111.0499 260° West  Level Estimated
Wed 11:50:00 PM 34.1365 110.9431 260° West  Level Estimated
Wed 11:51:00 PM 34.1210 110.8363 260° West  Level Estimated
Wed 11:52:00 PM 34.1054 110.7295 260° West  Level Estimated
Wed 11:53:00 PM 34.0897 110.6228 260° West  Level Estimated
Wed 11:54:00 PM 34.0740 110.5161 260° West  Level Estimated
Wed 11:55:00 PM 34.0581 110.4094 260° West  Level Estimated
Wed 11:56:00 PM 34.0421 110.3028 260° West  Level Estimated
Wed 11:57:00 PM 34.0261 110.1963 260° West  Level Estimated
Wed 11:58:00 PM 34.0099 110.0898 260° West  Level Estimated
Wed 11:59:00 PM 33.9937 109.9833 260° West  Level Estimated
Thu 12:00:00 AM 33.9774 109.8768 260° West  Level Estimated
Thu 12:01:00 AM 33.9610 109.7704 259° West  Level Estimated
Thu 12:02:00 AM 33.9445 109.6641 259° West  Level Estimated
Thu 12:03:00 AM 33.9279 109.5577 259° West  Level Estimated
Thu 12:04:00 AM 33.9112 109.4515 259° West  Level Estimated
Thu 12:05:00 AM 33.8944 109.3452 259° West  Level Estimated
Thu 12:06:00 AM 33.8775 109.2390 259° West  Level Estimated
Thu 12:07:00 AM 33.8605 109.1329 259° West  Level Estimated
Thu 12:08:00 AM 33.8435 109.0268 259° West  Level Estimated
Thu 12:09:00 AM 33.8264 108.9207 259° West  Level Estimated
Thu 12:10:00 AM 33.8091 108.8147 259° West  Level Estimated
Thu 12:11:00 AM 33.7918 108.7087 259° West  Level Estimated
Thu 12:12:00 AM 33.7744 108.6028 259° West  Level Estimated
Thu 12:13:00 AM 33.7569 108.4968 259° West  Level Estimated
Thu 12:14:00 AM 33.7393 108.3910 259° West  Level Estimated
Thu 12:15:00 AM 33.7216 108.2852 259° West  Level Estimated
Thu 12:16:00 AM 33.7038 108.1794 259° West  Level Estimated
Thu 12:17:00 AM 33.6859 108.0737 259° West  Level Estimated
Thu 12:18:00 AM 33.6679 107.9680 258° West  Level Estimated
Thu 12:19:00 AM 33.6499 107.8624 258° West  Level Estimated
Thu 12:20:00 AM 33.6318 107.7568 258° West  Level Estimated
Thu 12:21:00 AM 33.6135 107.6513 258° West  Level Estimated
Thu 12:22:00 AM 33.5952 107.5458 258° West  Level Estimated
Thu 12:23:00 AM 33.5768 107.4403 258° West  Level Estimated
Thu 12:24:00 AM 33.5583 107.3349 258° West  Level Estimated
Thu 12:25:00 AM 33.5397 107.2295 258° West  Level Estimated
Thu 12:26:00 AM 33.5210 107.1242 258° West  Level Estimated
Thu 12:27:00 AM 33.5023 107.0189 258° West  Level Estimated
Thu 12:28:00 AM 33.4834 106.9137 258° West  Level Estimated
Thu 12:29:00 AM 33.4645 106.8085 258° West  Level Estimated
Thu 12:30:00 AM 33.4454 106.7034 258° West  Level Estimated
Thu 12:31:00 AM 33.4263 106.5983 258° West  Level Estimated
Thu 12:32:00 AM 33.4071 106.4932 258° West  Level Estimated
Thu 12:33:00 AM 33.3878 106.3883 258° West  Level Estimated
Thu 12:34:00 AM 33.3684 106.2833 258° West  Level Estimated
Thu 12:35:00 AM 33.3490 106.1784 257° West  Level Estimated
Thu 12:36:00 AM 33.3294 106.0735 257° West  Level Estimated
Thu 12:37:00 AM 33.3097 105.9687 257° West  Level Estimated
Thu 12:38:00 AM 33.2900 105.8640 257° West  Level Estimated
Thu 12:39:00 AM 33.2702 105.7593 257° West  Level Estimated
Thu 12:40:00 AM 33.2503 105.6546 257° West  Level Estimated
Thu 12:41:00 AM 33.2303 105.5500 257° West  Level Estimated
Thu 12:42:00 AM 33.2102 105.4454 257° West  Level Estimated
Thu 12:43:00 AM 33.1900 105.3409 257° West  Level Estimated
Thu 12:44:00 AM 33.1697 105.2364 257° West  Level Estimated
Thu 12:45:00 AM 33.1494 105.1320 257° West  Level Estimated
Thu 12:46:00 AM 33.1289 105.0276 257° West  Level Estimated
Thu 12:47:00 AM 33.1084 104.9233 257° West  Level Estimated
Thu 12:48:00 AM 33.0878 104.8190 257° West  Level Estimated
Thu 12:49:00 AM 33.0671 104.7148 257° West  Level Estimated
Thu 12:50:00 AM 33.0463 104.6106 257° West  Level Estimated
Thu 12:51:00 AM 33.0255 104.5064 257° West  Level Estimated
Thu 12:52:00 AM 33.0045 104.4024 257° West  Level Estimated
Thu 12:53:00 AM 32.9835 104.2983 256° West  Level Estimated
Thu 12:54:00 AM 32.9623 104.1944 256° West  Level Estimated
Thu 12:55:00 AM 32.9411 104.0904 256° West  Level Estimated
Thu 12:56:00 AM 32.9198 103.9865 256° West  Level Estimated
Thu 12:57:00 AM 32.8984 103.8827 256° West  Level Estimated
Thu 12:58:00 AM 32.8769 103.7789 256° West  Level Estimated
Thu 12:59:00 AM 32.8570 103.6830 256° West  Level Estimated
Thu 01:00:00 AM 32.8570 103.6830 North  Level Estimated
Thu 01:01:00 AM 32.8570 103.6830 North  Level Estimated
Thu 01:02:00 AM 32.8570 103.6830 North  Level Estimated
Thu 01:03:00 AM 32.8570 103.6830 North  Level Estimated
Thu 01:04:00 AM 32.8570 103.6830 North  Level Estimated
Thu 01:05:00 AM 32.8570 103.6830 North  Level Estimated

Login

Don't have an account? Register now (free) for customized features, flight alerts, and more!